Shady Cove, Oregon
Current Conditions -  °F | °C
As of 10:53 AM on Thursday 18 Dec 2014 (Local Time) from KMFR Reporting Station
Haze Haze  
Wind Chill: 44°   Ceiling: 400
Heat Index: 44°   Visibility: 3mi
Dew Point: 42°   Wind: 0mph
Humidity: 93%   Direction: NA
Pressure: 30.05"   Gusts: NA
Location:  42.61°N, 122.81°W
Report Text: KMFR 181853Z 00000KT 3SM BR BKN004 07/06 A3005 RMK AO2 SLP180 T00670056
Loading
Personal Weather Stations






























Interactive Weather Map New forecast layout! Learn more

10-Day Weather Forecast

Advertisements
Track Severe Weather on mobile